Time;durP1;ratioP1;P1;durP2;ratioP2;P2;SDS_P1;SDS_P2;PMS_P1;PMS_P2;Temp;Humidity;BMP_temperature;BMP_pressure;BME280_temperature;BME280_humidity;BME280_pressure;Samples;Min_cycle;Max_cycle;Signal;HPM_P1;HPM_P2
2022/06/22 00:00:03;;;;;;;;;;;;;;;20.47;67.20;96365.66;30001;983;1878;-76
2022/06/22 00:00:37;;;;;;;;;;;;;;;20.47;67.58;96365.66;30001;983;1878;-58
2022/06/22 00:01:46;;;;;;;;;;;;;;;20.46;67.46;96366.81;30001;983;1878;-57
2022/06/22 00:02:26;;;;;;;;;;;;;;;20.46;67.35;96364.06;30001;982;1872;-75
2022/06/22 00:02:58;;;;;;;;;;;;;;;20.45;66.99;96368.00;30001;982;1878;-59
2022/06/22 00:03:29;;;;;;;;;;;;;;;20.46;67.31;96364.06;30001;982;1878;-58
2022/06/22 00:04:01;;;;;;;;;;;;;;;20.46;67.11;96369.56;30001;982;1865;-58
2022/06/22 00:04:37;;;;;;;;;;;;;;;20.45;67.79;96362.47;30001;983;1856;-58
2022/06/22 00:05:16;;;;;;;;;;;;;;;20.43;68.20;96364.03;30001;983;1877;-74
2022/06/22 00:05:49;;;;;;;;;;;;;;;20.41;68.22;96356.13;30001;983;1877;-59
2022/06/22 00:06:40;;;;;;;;;;;;;;;20.41;67.87;96361.66;30001;983;1877;-77
2022/06/22 00:07:20;;;;;;;;;;;;;;;20.39;67.88;96352.97;30001;983;1874;-74
2022/06/22 00:07:53;;;;;;;;;;;;;;;20.40;67.46;96360.06;30001;966;1903;-57
2022/06/22 00:08:30;;;;;;;;;;;;;;;20.42;67.05;96348.66;30001;983;1878;-76
2022/06/22 00:09:02;;;;;;;;;;;;;;;20.44;67.12;96355.41;30001;983;1878;-74
2022/06/22 00:09:35;;;;;;;;;;;;;;;20.45;67.15;96351.44;30001;982;1865;-75
2022/06/22 00:10:24;;;;;;;;;;;;;;;20.46;67.25;96352.25;30001;982;1869;-75
2022/06/22 00:10:57;;;;;;;;;;;;;;;20.49;67.28;96346.78;30001;982;1869;-76
2022/06/22 00:11:29;;;;;;;;;;;;;;;20.50;66.89;96345.62;30001;982;1878;-74
2022/06/22 00:12:01;;;;;;;;;;;;;;;20.51;66.85;96344.47;30001;974;1899;-76
2022/06/22 00:12:32;;;;;;;;;;;;;;;20.52;66.69;96351.56;30001;983;1877;-74
2022/06/22 00:13:05;;;;;;;;;;;;;;;20.53;66.97;96347.66;30001;983;1877;-74
2022/06/22 00:13:36;;;;;;;;;;;;;;;20.55;66.40;96344.53;30001;983;1878;-76
2022/06/22 00:14:16;;;;;;;;;;;;;;;20.55;66.56;96350.84;30001;983;1877;-59
2022/06/22 00:14:50;;;;;;;;;;;;;;;20.55;67.05;96348.06;30001;983;1864;-78
2022/06/22 00:15:41;;;;;;;;;;;;;;;20.56;67.40;96337.84;30001;964;1782;-76
2022/06/22 00:16:18;;;;;;;;;;;;;;;20.57;67.21;96331.16;30001;983;1865;-59
2022/06/22 00:16:51;;;;;;;;;;;;;;;20.57;67.10;96326.47;30001;983;1869;-77
2022/06/22 00:17:47;;;;;;;;;;;;;;;20.58;67.22;96317.03;30001;982;1878;-59
2022/06/22 00:18:25;;;;;;;;;;;;;;;20.59;67.07;96315.84;30001;982;1874;-74
2022/06/22 00:18:57;;;;;;;;;;;;;;;20.59;66.68;96313.09;30001;982;1878;-74
2022/06/22 00:19:34;;;;;;;;;;;;;;;20.61;66.75;96310.78;30001;983;1877;-59
2022/06/22 00:20:15;;;;;;;;;;;;;;;20.63;66.91;96313.16;30001;983;1877;-58
2022/06/22 00:20:50;;;;;;;;;;;;;;;20.63;66.21;96307.62;30001;983;1864;-59
2022/06/22 00:21:30;;;;;;;;;;;;;;;20.64;66.26;96310.03;30001;983;1869;-76
2022/06/22 00:22:01;;;;;;;;;;;;;;;20.66;66.53;96304.94;30001;983;1878;-75
2022/06/22 00:22:44;;;;;;;;;;;;;;;20.70;66.38;96311.31;30001;983;1878;-59
2022/06/22 00:23:35;;;;;;;;;;;;;;;20.70;66.82;96294.75;30001;983;1878;-74
2022/06/22 00:24:43;;;;;;;;;;;;;;;20.71;66.18;96296.34;30001;982;1873;-74
2022/06/22 00:25:40;;;;;;;;;;;;;;;20.73;66.56;96295.97;30001;982;1860;-58
2022/06/22 00:26:40;;;;;;;;;;;;;;;20.71;66.14;96293.59;30001;982;1865;-75
2022/06/22 00:27:36;;;;;;;;;;;;;;;20.71;66.22;96287.28;30001;983;1779;-58
2022/06/22 00:28:25;;;;;;;;;;;;;;;20.68;66.13;96291.59;30001;983;1864;-59
2022/06/22 00:29:05;;;;;;;;;;;;;;;20.68;66.34;96288.81;30001;983;1869;-59
2022/06/22 00:29:40;;;;;;;;;;;;;;;20.67;66.35;96280.94;30001;983;1779;-76
2022/06/22 00:30:14;;;;;;;;;;;;;;;20.66;66.51;96280.13;30001;957;1805;-58
2022/06/22 00:30:46;;;;;;;;;;;;;;;20.65;66.44;96281.28;30002;983;1878;-76
2022/06/22 00:31:29;;;;;;;;;;;;;;;20.65;66.28;96281.28;30002;981;1865;-58
2022/06/22 00:32:03;;;;;;;;;;;;;;;20.64;66.45;96276.94;30002;984;1869;-75
2022/06/22 00:32:34;;;;;;;;;;;;;;;20.65;66.59;96275.78;30002;982;1865;-74
2022/06/22 00:33:16;;;;;;;;;;;;;;;20.63;66.61;96272.59;30002;982;1869;-74
2022/06/22 00:34:03;;;;;;;;;;;;;;;20.64;67.26;96267.88;30002;982;1878;-75
2022/06/22 00:34:34;;;;;;;;;;;;;;;20.63;66.93;96272.59;30002;983;1877;-58
2022/06/22 00:35:23;;;;;;;;;;;;;;;20.65;66.80;96267.50;30002;983;1877;-58
2022/06/22 00:36:23;;;;;;;;;;;;;;;20.65;67.01;96272.22;30002;983;1869;-75
2022/06/22 00:36:59;;;;;;;;;;;;;;;20.65;66.52;96275.78;30002;983;1873;-60
2022/06/22 00:37:31;;;;;;;;;;;;;;;20.64;66.78;96270.62;30002;983;1865;-75
2022/06/22 00:38:05;;;;;;;;;;;;;;;20.65;66.94;96270.28;30002;983;1869;-58
2022/06/22 00:38:35;;;;;;;;;;;;;;;20.66;66.99;96271.06;30002;983;1878;-76
2022/06/22 00:39:17;;;;;;;;;;;;;;;20.67;67.09;96275.41;30002;982;1878;-76
2022/06/22 00:39:51;;;;;;;;;;;;;;;20.67;66.98;96265.19;30002;982;1878;-75
2022/06/22 00:40:22;;;;;;;;;;;;;;;20.68;66.97;96272.28;30002;982;1878;-58
2022/06/22 00:40:55;;;;;;;;;;;;;;;20.69;66.78;96273.87;30002;982;1878;-58
2022/06/22 00:41:26;;;;;;;;;;;;;;;20.69;67.12;96268.34;30002;982;1878;-59
2022/06/22 00:42:21;;;;;;;;;;;;;;;20.71;67.04;96271.53;30002;982;1878;-76
2022/06/22 00:42:53;;;;;;;;;;;;;;;20.72;67.10;96267.63;30002;983;1864;-58
2022/06/22 00:43:38;;;;;;;;;;;;;;;20.74;66.74;96270.00;30002;983;1869;-74
2022/06/22 00:44:12;;;;;;;;;;;;;;;20.71;66.85;96271.53;30002;983;1878;-58
2022/06/22 00:45:12;;;;;;;;;;;;;;;20.70;66.86;96272.72;30002;983;1878;-75
2022/06/22 00:45:43;;;;;;;;;;;;;;;20.70;66.89;96269.94;30002;983;1860;-77
2022/06/22 00:46:16;;;;;;;;;;;;;;;20.70;67.11;96269.94;30002;983;1776;-60
2022/06/22 00:46:51;;;;;;;;;;;;;;;20.70;67.04;96269.94;30002;982;1878;-76
2022/06/22 00:47:45;;;;;;;;;;;;;;;20.70;66.96;96275.47;30002;982;1878;-74
2022/06/22 00:48:22;;;;;;;;;;;;;;;20.69;66.74;96279.38;30002;982;1865;-58
2022/06/22 00:48:55;;;;;;;;;;;;;;;20.68;66.91;96277.78;30002;982;1874;-58
2022/06/22 00:49:28;;;;;;;;;;;;;;;20.68;67.15;96283.31;30002;982;1882;-60
2022/06/22 00:50:01;;;;;;;;;;;;;;;20.67;66.81;96280.94;30002;983;1882;-58
2022/06/22 00:50:47;;;;;;;;;;;;;;;20.68;67.28;96294.34;30002;983;1882;-58
2022/06/22 00:51:44;;;;;;;;;;;;;;;20.67;67.74;96281.72;30002;983;1869;-58
2022/06/22 00:52:41;;;;;;;;;;;;;;;20.65;67.49;96289.56;30002;983;1819;-76
2022/06/22 00:53:41;;;;;;;;;;;;;;;20.65;67.33;96289.56;30002;983;1864;-58
2022/06/22 00:54:15;;;;;;;;;;;;;;;20.65;67.57;96294.28;30002;982;1869;-74
2022/06/22 00:54:50;;;;;;;;;;;;;;;20.63;68.50;96294.66;30002;982;1882;-75
2022/06/22 00:55:27;;;;;;;;;;;;;;;20.62;67.92;96295.03;30002;982;1882;-76
2022/06/22 00:56:03;;;;;;;;;;;;;;;20.61;67.97;96297.00;30002;982;1882;-74
2022/06/22 00:57:00;;;;;;;;;;;;;;;20.61;68.12;96305.25;30002;973;1903;-58
2022/06/22 00:57:37;;;;;;;;;;;;;;;20.62;67.85;96295.81;30002;983;1864;-58
2022/06/22 00:58:20;;;;;;;;;;;;;;;20.62;67.73;96298.56;30002;983;1860;-59
2022/06/22 00:58:55;;;;;;;;;;;;;;;20.65;67.64;96297.84;30002;965;1900;-77
2022/06/22 00:59:49;;;;;;;;;;;;;;;20.67;67.88;96302.97;30002;983;1882;-59
2022/06/22 01:00:22;;;;;;;;;;;;;;;20.63;67.47;96296.63;30002;983;1878;-71
2022/06/22 01:01:13;;;;;;;;;;;;;;;20.63;67.31;96307.62;30002;983;1882;-59
2022/06/22 01:01:50;;;;;;;;;;;;;;;20.62;67.80;96301.34;30002;982;1878;-58
2022/06/22 01:02:44;;;;;;;;;;;;;;;20.63;67.91;96302.13;30002;982;1869;-58
2022/06/22 01:03:19;;;;;;;;;;;;;;;20.62;67.86;96306.06;30002;982;1869;-75
2022/06/22 01:03:56;;;;;;;;;;;;;;;20.61;68.02;96299.75;30002;982;1869;-58
2022/06/22 01:04:49;;;;;;;;;;;;;;;20.59;68.69;96307.59;30002;983;1873;-59
2022/06/22 01:05:32;;;;;;;;;;;;;;;20.56;68.54;96300.06;30002;983;1877;-59
2022/06/22 01:06:08;;;;;;;;;;;;;;;20.57;68.35;96298.91;30002;983;1869;-58
2022/06/22 01:06:58;;;;;;;;;;;;;;;20.57;68.09;96301.66;30002;983;1873;-57
2022/06/22 01:07:38;;;;;;;;;;;;;;;20.56;68.14;96296.50;30002;983;1878;-58
2022/06/22 01:08:24;;;;;;;;;;;;;;;20.55;68.29;96290.19;30002;983;1883;-76
2022/06/22 01:09:05;;;;;;;;;;;;;;;20.56;68.01;96302.81;30002;982;1883;-74
2022/06/22 01:09:58;;;;;;;;;;;;;;;20.57;68.27;96301.66;30002;982;1883;-60
2022/06/22 01:10:49;;;;;;;;;;;;;;;20.59;68.48;96298.53;30002;982;1865;-58
2022/06/22 01:12:25;;;;;;;;;;;;;;;20.57;68.30;96304.41;30002;983;1882;-58
2022/06/22 01:13:08;;;;;;;;;;;;;;;20.57;68.43;96307.16;30002;964;1901;-59
2022/06/22 01:13:43;;;;;;;;;;;;;;;20.58;68.57;96317.03;30002;983;1882;-77
2022/06/22 01:14:37;;;;;;;;;;;;;;;20.56;68.31;96313.84;30002;983;1882;-58
2022/06/22 01:15:12;;;;;;;;;;;;;;;20.56;68.36;96330.38;30002;983;1869;-77
2022/06/22 01:16:06;;;;;;;;;;;;;;;20.55;68.47;96334.28;30002;983;1874;-76
2022/06/22 01:16:39;;;;;;;;;;;;;;;20.54;68.56;96331.91;30002;982;1883;-59
2022/06/22 01:17:33;;;;;;;;;;;;;;;20.53;68.90;96333.88;30002;982;1870;-59
2022/06/22 01:18:10;;;;;;;;;;;;;;;20.51;68.65;96327.94;30002;982;1870;-57
2022/06/22 01:18:44;;;;;;;;;;;;;;;20.51;68.76;96329.91;30002;982;1883;-58
2022/06/22 01:19:40;;;;;;;;;;;;;;;20.53;68.75;96328.34;30002;983;1869;-76
2022/06/22 01:20:37;;;;;;;;;;;;;;;20.53;69.43;96333.06;30002;983;1869;-58
2022/06/22 01:21:28;;;;;;;;;;;;;;;20.50;69.45;96329.09;30002;983;1878;-59
2022/06/22 01:22:22;;;;;;;;;;;;;;;20.48;69.10;96328.66;30002;983;1790;-74
2022/06/22 01:23:08;;;;;;;;;;;;;;;20.52;69.12;96334.25;30002;983;1878;-76
2022/06/22 01:24:14;;;;;;;;;;;;;;;20.51;69.36;96327.94;30002;972;1797;-76
2022/06/22 01:24:57;;;;;;;;;;;;;;;20.47;69.93;96332.59;30002;982;1865;-58
2022/06/22 01:26:06;;;;;;;;;;;;;;;20.47;69.57;96332.59;30001;982;1861;-76
2022/06/22 01:26:55;;;;;;;;;;;;;;;20.44;69.83;96329.81;30001;983;1878;-77
2022/06/22 01:27:32;;;;;;;;;;;;;;;20.42;70.79;96340.41;30001;983;1864;-76
2022/06/22 01:28:05;;;;;;;;;;;;;;;20.37;71.38;96333.22;30001;987;1873;-58
2022/06/22 01:28:37;;;;;;;;;;;;;;;20.33;71.46;96337.88;30001;983;1882;-58
2022/06/22 01:29:26;;;;;;;;;;;;;;;20.30;71.42;96327.59;30001;983;1869;-59
2022/06/22 01:29:59;;;;;;;;;;;;;;;20.27;71.80;96322.81;30001;983;1869;-75
2022/06/22 01:30:34;;;;;;;;;;;;;;;20.26;70.86;96327.53;30001;983;1882;-76
2022/06/22 01:31:11;;;;;;;;;;;;;;;20.29;70.97;96326.00;30001;982;1883;-58
2022/06/22 01:31:58;;;;;;;;;;;;;;;20.30;70.43;96316.56;30001;982;1883;-59
2022/06/22 01:32:31;;;;;;;;;;;;;;;20.31;71.22;96323.66;30001;982;1883;-59
2022/06/22 01:33:06;;;;;;;;;;;;;;;20.28;71.72;96319.69;30001;982;1870;-59
2022/06/22 01:33:41;;;;;;;;;;;;;;;20.26;71.29;96323.97;30001;982;1874;-77
2022/06/22 01:34:16;;;;;;;;;;;;;;;20.24;70.90;96318.81;30001;983;1882;-58
2022/06/22 01:34:50;;;;;;;;;;;;;;;20.24;71.20;96323.53;30001;983;1882;-59
2022/06/22 01:35:30;;;;;;;;;;;;;;;20.23;71.04;96321.94;30001;983;1882;-58
2022/06/22 01:36:05;;;;;;;;;;;;;;;20.22;71.04;96326.66;30001;983;1882;-78
2022/06/22 01:36:39;;;;;;;;;;;;;;;20.20;71.08;96323.47;30001;983;1882;-59
2022/06/22 01:37:31;;;;;;;;;;;;;;;20.21;71.23;96335.28;30001;983;1882;-77
2022/06/22 01:38:30;;;;;;;;;;;;;;;20.20;71.70;96333.69;30001;983;1869;-59
2022/06/22 01:39:02;;;;;;;;;;;;;;;20.17;71.87;96339.94;30001;982;1869;-77
2022/06/22 01:39:33;;;;;;;;;;;;;;;20.17;71.73;96339.94;30001;982;1883;-77
2022/06/22 01:40:13;;;;;;;;;;;;;;;20.15;71.94;96331.25;30001;982;1883;-78
2022/06/22 01:41:19;;;;;;;;;;;;;;;20.14;71.82;96335.97;30001;982;1870;-58
2022/06/22 01:41:56;;;;;;;;;;;;;;;20.11;72.22;96335.91;30001;983;1873;-76
2022/06/22 01:42:33;;;;;;;;;;;;;;;20.08;72.21;96341.00;30001;983;1882;-59
2022/06/22 01:43:14;;;;;;;;;;;;;;;20.07;72.71;96335.87;30001;983;1882;-78
2022/06/22 01:43:55;;;;;;;;;;;;;;;20.04;72.17;96337.41;30001;983;1882;-78
2022/06/22 01:44:46;;;;;;;;;;;;;;;20.03;72.84;96341.31;30001;983;1849;-58
2022/06/22 01:45:28;;;;;;;;;;;;;;;20.01;72.32;96348.34;30001;983;1883;-58
2022/06/22 01:46:07;;;;;;;;;;;;;;;19.98;72.53;96344.38;30001;982;1870;-77
2022/06/22 01:47:06;;;;;;;;;;;;;;;19.98;72.62;96349.09;30001;982;1874;-59
2022/06/22 01:47:43;;;;;;;;;;;;;;;19.94;72.21;96351.75;30001;982;1878;-57
2022/06/22 01:48:19;;;;;;;;;;;;;;;19.94;72.49;96343.50;30001;982;1883;-76
2022/06/22 01:49:03;;;;;;;;;;;;;;;19.92;72.97;96340.31;30001;982;1883;-78
2022/06/22 01:49:39;;;;;;;;;;;;;;;19.90;73.02;96345.41;30001;983;1882;-58
2022/06/22 01:50:21;;;;;;;;;;;;;;;19.88;72.87;96344.16;30001;983;1882;-58
2022/06/22 01:51:08;;;;;;;;;;;;;;;19.87;73.65;96343.37;30001;983;1869;-59
2022/06/22 01:51:43;;;;;;;;;;;;;;;19.83;74.12;96347.22;30001;983;1873;-77
2022/06/22 01:52:31;;;;;;;;;;;;;;;19.80;73.70;96343.25;30001;983;1882;-58
2022/06/22 01:53:10;;;;;;;;;;;;;;;19.78;73.23;96351.06;30001;983;1883;-60
2022/06/22 01:53:44;;;;;;;;;;;;;;;19.78;73.33;96356.56;30001;982;1883;-59
2022/06/22 01:54:38;;;;;;;;;;;;;;;19.78;73.32;96351.06;30001;982;1883;-77
2022/06/22 01:55:28;;;;;;;;;;;;;;;19.74;74.36;96352.97;30001;982;1879;-58
2022/06/22 01:56:02;;;;;;;;;;;;;;;19.72;73.95;96352.56;30001;982;1865;-59
2022/06/22 01:56:45;;;;;;;;;;;;;;;19.73;73.53;96348.63;30001;982;1874;-59
2022/06/22 01:57:24;;;;;;;;;;;;;;;19.74;73.81;96350.22;30001;983;1882;-58
2022/06/22 01:58:01;;;;;;;;;;;;;;;19.73;73.48;96354.16;30001;983;1882;-58
2022/06/22 01:58:37;;;;;;;;;;;;;;;19.73;73.61;96354.16;30001;983;1882;-58
2022/06/22 01:59:27;;;;;;;;;;;;;;;19.74;73.36;96355.75;30001;983;1869;-77
2022/06/22 02:00:01;;;;;;;;;;;;;;;19.74;73.25;96355.75;30001;983;1865;-58
2022/06/22 02:00:39;;;;;;;;;;;;;;;19.75;73.65;96357.31;30001;983;1882;-58
2022/06/22 02:01:24;;;;;;;;;;;;;;;19.74;73.72;96351.03;30001;982;1870;-76
2022/06/22 02:02:00;;;;;;;;;;;;;;;19.74;73.61;96361.25;30001;982;1874;-59
2022/06/22 02:02:36;;;;;;;;;;;;;;;19.74;73.75;96356.53;30001;982;1883;-59
2022/06/22 02:03:16;;;;;;;;;;;;;;;19.74;73.66;96355.75;30001;982;1883;-58
2022/06/22 02:04:02;;;;;;;;;;;;;;;19.75;73.88;96357.31;30001;983;1882;-58
2022/06/22 02:04:36;;;;;;;;;;;;;;;19.76;73.40;96353.38;30001;983;1869;-77
2022/06/22 02:05:29;;;;;;;;;;;;;;;19.77;73.65;96348.69;30001;983;1873;-58
2022/06/22 02:07:44;;;;;;;;;;;;;;;19.78;73.33;96342.81;30001;961;1806;-58
2022/06/22 02:08:13;;;;;;;;;;;;;;;19.81;73.23;96322.81;30001;983;1869;-75
2022/06/22 02:08:46;;;;;;;;;;;;;;;19.86;72.95;96311.50;30001;982;1882;-59
2022/06/22 02:09:20;;;;;;;;;;;;;;;19.93;72.73;96306.13;30001;982;1882;-59
2022/06/22 02:10:29;;;;;;;;;;;;;;;19.96;72.26;96302.63;30001;982;1882;-58
2022/06/22 02:11:15;;;;;;;;;;;;;;;20.05;72.17;96294.94;30001;983;1877;-58
2022/06/22 02:11:50;;;;;;;;;;;;;;;20.05;72.27;96283.13;30001;983;1882;-75
2022/06/22 02:12:28;;;;;;;;;;;;;;;20.01;72.68;96291.31;30001;983;1868;-59
2022/06/22 02:13:08;;;;;;;;;;;;;;;19.99;72.62;96290.09;30001;983;1873;-58
2022/06/22 02:13:48;;;;;;;;;;;;;;;19.98;72.57;96278.28;30001;983;1882;-58
2022/06/22 02:14:22;;;;;;;;;;;;;;;19.97;73.06;96276.69;30001;983;1882;-59
2022/06/22 02:14:57;;;;;;;;;;;;;;;19.98;72.51;96283.78;30001;983;1882;-58
2022/06/22 02:15:48;;;;;;;;;;;;;;;19.98;72.62;96278.28;30001;983;1882;-59
2022/06/22 02:16:25;;;;;;;;;;;;;;;19.97;72.49;96279.44;30001;982;1878;-59
2022/06/22 02:17:01;;;;;;;;;;;;;;;19.97;72.14;96275.91;30001;982;1882;-77
2022/06/22 02:17:35;;;;;;;;;;;;;;;19.96;72.24;96283.34;30001;982;1869;-58
2022/06/22 02:18:14;;;;;;;;;;;;;;;19.97;72.08;96287.72;30001;960;1875;-59
2022/06/22 02:18:49;;;;;;;;;;;;;;;19.98;72.21;96289.28;30001;983;1882;-58
2022/06/22 02:19:21;;;;;;;;;;;;;;;19.99;72.21;96292.84;30001;983;1882;-78
2022/06/22 02:20:24;;;;;;;;;;;;;;;20.00;72.11;96302.69;30001;983;1882;-76
2022/06/22 02:20:58;;;;;;;;;;;;;;;20.02;71.97;96305.88;30001;983;1877;-74
2022/06/22 02:21:36;;;;;;;;;;;;;;;20.01;72.17;96305.09;30001;983;1882;-58
2022/06/22 02:22:09;;;;;;;;;;;;;;;20.04;71.93;96314.56;30001;983;1882;-58
2022/06/22 02:22:40;;;;;;;;;;;;;;;20.04;71.91;96315.38;30001;983;1882;-78
2022/06/22 02:23:32;;;;;;;;;;;;;;;20.05;72.36;96321.66;30001;982;1869;-59
2022/06/22 02:24:27;;;;;;;;;;;;;;;20.02;72.13;96325.16;30001;982;1856;-78
2022/06/22 02:24:58;;;;;;;;;;;;;;;20.03;72.18;96321.25;30001;982;1797;-58
2022/06/22 02:25:31;;;;;;;;;;;;;;;20.01;72.30;96321.59;30001;982;1883;-59
2022/06/22 02:26:13;;;;;;;;;;;;;;;20.01;72.34;96316.09;30001;982;1883;-59
2022/06/22 02:26:52;;;;;;;;;;;;;;;20.02;72.28;96325.16;30001;983;1882;-76
2022/06/22 02:27:23;;;;;;;;;;;;;;;20.04;72.35;96326.38;30001;983;1882;-59
2022/06/22 02:27:54;;;;;;;;;;;;;;;20.04;72.88;96320.88;30001;983;1849;-59
2022/06/22 02:28:25;;;;;;;;;;;;;;;20.03;73.50;96322.03;30001;983;1869;-59
2022/06/22 02:28:57;;;;;;;;;;;;;;;20.00;73.82;96320.00;30001;983;1873;-77
2022/06/22 02:29:32;;;;;;;;;;;;;;;19.97;73.33;96320.75;30001;983;1882;-59
2022/06/22 02:30:03;;;;;;;;;;;;;;;19.95;72.87;96320.31;30001;983;1882;-78
2022/06/22 02:30:34;;;;;;;;;;;;;;;19.96;73.11;96319.16;30001;982;1882;-58
2022/06/22 02:31:06;;;;;;;;;;;;;;;19.96;73.09;96324.66;30001;982;1882;-59
2022/06/22 02:31:37;;;;;;;;;;;;;;;19.96;72.99;96321.91;30001;982;1882;-77
2022/06/22 02:32:11;;;;;;;;;;;;;;;19.96;73.61;96318.34;30001;982;1882;-78
2022/06/22 02:32:43;;;;;;;;;;;;;;;19.94;73.36;96318.72;30001;982;1882;-77
2022/06/22 02:33:15;;;;;;;;;;;;;;;19.93;73.25;96314.38;30001;982;1882;-58
2022/06/22 02:33:48;;;;;;;;;;;;;;;19.94;73.28;96315.97;30001;968;1889;-59
2022/06/22 02:34:19;;;;;;;;;;;;;;;19.94;72.86;96321.47;30001;983;1873;-58
2022/06/22 02:34:52;;;;;;;;;;;;;;;19.97;72.68;96320.75;30001;983;1882;-76
2022/06/22 02:35:23;;;;;;;;;;;;;;;19.98;72.51;96322.34;30001;983;1882;-58
2022/06/22 02:35:55;;;;;;;;;;;;;;;19.99;72.96;96312.91;30001;983;1882;-59
2022/06/22 02:36:30;;;;;;;;;;;;;;;19.99;72.54;96315.66;30001;983;1882;-58
2022/06/22 02:37:04;;;;;;;;;;;;;;;20.01;72.53;96321.59;30001;983;1882;-59
2022/06/22 02:37:39;;;;;;;;;;;;;;;20.03;72.10;96324.00;30001;983;1882;-58
2022/06/22 02:38:12;;;;;;;;;;;;;;;20.05;72.30;96318.91;30001;982;1882;-58
2022/06/22 02:38:44;;;;;;;;;;;;;;;20.06;72.27;96315.78;30001;986;1869;-59
2022/06/22 02:39:17;;;;;;;;;;;;;;;20.07;72.10;96314.63;30001;982;1873;-78
2022/06/22 02:39:51;;;;;;;;;;;;;;;20.07;72.11;96314.63;30001;982;1882;-58
2022/06/22 02:40:25;;;;;;;;;;;;;;;20.10;72.38;96320.56;30001;982;1883;-72
2022/06/22 02:44:31;;;;;;;;;;;;;;;20.14;72.74;96313.13;30001;983;1873;-78
2022/06/22 02:45:04;;;;;;;;;;;;;;;20.12;73.03;96313.50;30001;983;1882;-58
2022/06/22 02:45:38;;;;;;;;;;;;;;;20.10;72.74;96317.81;30001;982;1786;-76
2022/06/22 02:46:11;;;;;;;;;;;;;;;20.09;72.90;96319.78;30001;982;1882;-73
2022/06/22 02:46:45;;;;;;;;;;;;;;;20.08;72.56;96321.72;30001;982;1882;-58
2022/06/22 02:47:21;;;;;;;;;;;;;;;20.08;72.92;96326.44;30001;982;1882;-57
2022/06/22 02:48:01;;;;;;;;;;;;;;;20.07;72.76;96320.13;30001;982;1869;-58
2022/06/22 02:48:34;;;;;;;;;;;;;;;20.08;74.50;96326.44;30001;982;1874;-58
2022/06/22 02:49:07;;;;;;;;;;;;;;;20.05;74.53;96330.72;30001;983;1882;-58
2022/06/22 02:49:42;;;;;;;;;;;;;;;20.03;75.25;96330.31;30001;983;1882;-59
2022/06/22 02:50:26;;;;;;;;;;;;;;;20.00;75.14;96330.22;30001;983;1882;-58
2022/06/22 02:51:14;;;;;;;;;;;;;;;19.97;75.01;96326.25;30001;983;1882;-58
2022/06/22 02:51:49;;;;;;;;;;;;;;;19.96;74.40;96330.16;30001;983;1882;-58
2022/06/22 02:52:21;;;;;;;;;;;;;;;19.96;75.00;96330.16;30001;983;1869;-58
2022/06/22 02:53:23;;;;;;;;;;;;;;;19.94;74.58;96323.44;30001;983;1860;-75
2022/06/22 02:53:57;;;;;;;;;;;;;;;19.92;74.74;96326.56;30001;982;1878;-75
2022/06/22 02:54:36;;;;;;;;;;;;;;;19.90;75.69;96323.38;30001;982;1882;-76
2022/06/22 02:55:11;;;;;;;;;;;;;;;19.90;77.31;96317.88;30001;982;1882;-58
2022/06/22 02:55:42;;;;;;;;;;;;;;;19.86;76.49;96314.25;30001;983;1882;-58
2022/06/22 02:56:14;;;;;;;;;;;;;;;19.87;75.91;96315.84;30001;983;1882;-58
2022/06/22 02:56:48;;;;;;;;;;;;;;;19.88;75.92;96311.94;30001;983;1882;-59
2022/06/22 02:57:40;;;;;;;;;;;;;;;19.89;75.47;96313.53;30001;983;1882;-58
2022/06/22 02:58:27;;;;;;;;;;;;;;;19.86;75.48;96303.25;30001;983;1869;-58
2022/06/22 02:58:58;;;;;;;;;;;;;;;19.84;75.48;96300.06;30001;983;1873;-58
2022/06/22 02:59:36;;;;;;;;;;;;;;;19.85;75.76;96307.16;30001;983;1882;-58
2022/06/22 03:00:08;;;;;;;;;;;;;;;19.87;75.66;96304.81;30001;983;1882;-75
2022/06/22 03:00:40;;;;;;;;;;;;;;;19.91;75.76;96300.19;30001;982;1882;-59
2022/06/22 03:01:15;;;;;;;;;;;;;;;19.91;75.57;96308.44;30001;982;1882;-78
2022/06/22 03:01:45;;;;;;;;;;;;;;;19.89;75.76;96302.50;30001;982;1882;-59
2022/06/22 03:02:18;;;;;;;;;;;;;;;19.87;75.43;96310.34;30001;982;1882;-58
2022/06/22 03:02:51;;;;;;;;;;;;;;;19.86;75.56;96313.47;30001;982;1882;-59
2022/06/22 03:03:23;;;;;;;;;;;;;;;19.85;75.59;96315.41;30001;986;1860;-75
2022/06/22 03:03:56;;;;;;;;;;;;;;;19.84;75.81;96313.81;30001;983;1869;-76
2022/06/22 03:04:28;;;;;;;;;;;;;;;19.83;76.03;96314.97;30001;983;1877;-78
2022/06/22 03:05:00;;;;;;;;;;;;;;;19.81;75.91;96309.03;30001;983;1877;-78
2022/06/22 03:05:32;;;;;;;;;;;;;;;19.80;76.10;96310.22;30001;983;1878;-77
2022/06/22 03:06:07;;;;;;;;;;;;;;;19.79;75.85;96305.88;30001;983;1877;-78
2022/06/22 03:06:42;;;;;;;;;;;;;;;19.79;77.09;96305.88;30001;983;1878;-76
2022/06/22 03:07:14;;;;;;;;;;;;;;;19.75;77.98;96308.53;30001;983;1878;-77
2022/06/22 03:07:47;;;;;;;;;;;;;;;19.72;78.18;96306.56;30001;983;1878;-59
2022/06/22 03:08:19;;;;;;;;;;;;;;;19.68;78.44;96302.16;30001;982;1865;-60
2022/06/22 03:08:50;;;;;;;;;;;;;;;19.67;77.94;96315.09;30001;982;1869;-59
2022/06/22 03:09:23;;;;;;;;;;;;;;;19.66;77.47;96316.28;30001;982;1878;-69
2022/06/22 03:09:54;;;;;;;;;;;;;;;19.68;77.23;96321.41;30001;982;1878;-72
2022/06/22 03:10:29;;;;;;;;;;;;;;;19.68;76.83;96321.41;30001;982;1865;-59
2022/06/22 03:11:01;;;;;;;;;;;;;;;19.68;77.18;96322.22;30001;983;1869;-76
2022/06/22 03:11:33;;;;;;;;;;;;;;;19.67;77.31;96319.81;30001;983;1806;-60
2022/06/22 03:12:05;;;;;;;;;;;;;;;19.66;77.42;96318.22;30001;983;1877;-58
2022/06/22 03:12:37;;;;;;;;;;;;;;;19.65;77.79;96319.37;30001;983;1864;-58
2022/06/22 03:13:12;;;;;;;;;;;;;;;19.61;77.79;96318.53;30001;983;1869;-59
2022/06/22 03:13:44;;;;;;;;;;;;;;;19.58;78.68;96319.25;30001;983;1878;-59
2022/06/22 03:14:27;;;;;;;;;;;;;;;19.57;78.26;96323.16;30001;983;1878;-59
2022/06/22 03:15:00;;;;;;;;;;;;;;;19.56;78.18;96321.56;30001;970;1900;-76
2022/06/22 03:15:35;;;;;;;;;;;;;;;19.54;78.08;96318.38;30001;983;1878;-78
2022/06/22 03:16:07;;;;;;;;;;;;;;;19.53;78.28;96327.78;30001;982;1878;-58
2022/06/22 03:16:39;;;;;;;;;;;;;;;19.52;78.77;96327.00;30001;982;1878;-59
2022/06/22 03:17:13;;;;;;;;;;;;;;;19.52;78.44;96328.94;30001;982;1865;-78
2022/06/22 03:17:44;;;;;;;;;;;;;;;19.50;77.91;96321.03;30001;982;1870;-59
2022/06/22 03:18:23;;;;;;;;;;;;;;;19.50;77.81;96317.47;30001;983;1877;-59
2022/06/22 03:18:56;;;;;;;;;;;;;;;19.50;77.64;96314.72;30001;983;1877;-59
2022/06/22 03:19:36;;;;;;;;;;;;;;;19.52;77.74;96318.75;30001;983;1864;-58
2022/06/22 03:20:13;;;;;;;;;;;;;;;19.53;77.94;96314.03;30001;983;1869;-57
2022/06/22 03:20:53;;;;;;;;;;;;;;;19.51;77.83;96314.41;30001;983;1878;-58
2022/06/22 03:21:24;;;;;;;;;;;;;;;19.51;77.61;96319.09;30001;983;1878;-77
2022/06/22 03:21:56;;;;;;;;;;;;;;;19.50;77.35;96311.97;30001;983;1878;-59
2022/06/22 03:22:32;;;;;;;;;;;;;;;19.49;77.27;96310.38;30001;983;1865;-59
2022/06/22 03:23:12;;;;;;;;;;;;;;;19.52;77.35;96312.44;30001;983;1869;-77
2022/06/22 03:23:57;;;;;;;;;;;;;;;19.53;77.54;96312.09;30001;982;1865;-59
2022/06/22 03:24:38;;;;;;;;;;;;;;;19.53;77.19;96305.78;30001;982;1869;-58
2022/06/22 03:25:21;;;;;;;;;;;;;;;19.52;77.01;96306.94;30001;982;1878;-59
2022/06/22 03:26:12;;;;;;;;;;;;;;;19.49;76.88;96307.62;30001;983;1877;-59
2022/06/22 03:26:49;;;;;;;;;;;;;;;19.50;76.65;96311.97;30001;983;1873;-58
2022/06/22 03:27:27;;;;;;;;;;;;;;;19.49;76.88;96310.38;30001;983;1766;-59
2022/06/22 03:28:02;;;;;;;;;;;;;;;19.47;76.76;96313.50;30001;983;1787;-58
2022/06/22 03:28:37;;;;;;;;;;;;;;;19.46;76.69;96311.91;30001;983;1878;-59
2022/06/22 03:29:22;;;;;;;;;;;;;;;19.46;76.81;96316.62;30001;983;1865;-58
2022/06/22 03:30:01;;;;;;;;;;;;;;;19.46;76.85;96308.38;30001;982;1869;-59
2022/06/22 03:30:40;;;;;;;;;;;;;;;19.45;76.59;96320.53;30001;982;1775;-58
2022/06/22 03:31:26;;;;;;;;;;;;;;;19.45;76.77;96309.53;30001;982;1878;-59
2022/06/22 03:32:23;;;;;;;;;;;;;;;19.43;77.04;96318.94;30001;982;1780;-58
2022/06/22 03:33:03;;;;;;;;;;;;;;;19.41;77.12;96321.25;30001;982;1856;-58
2022/06/22 03:33:47;;;;;;;;;;;;;;;19.40;77.35;96319.66;30001;983;1852;-59
2022/06/22 03:34:28;;;;;;;;;;;;;;;19.40;77.32;96319.66;30001;983;1877;-76
2022/06/22 03:35:05;;;;;;;;;;;;;;;19.41;77.16;96317.69;30001;983;1877;-58
2022/06/22 03:35:41;;;;;;;;;;;;;;;19.42;77.36;96311.84;30001;983;1762;-58